KDXR/DXR METAR and TAF weather

Enter ICAO airport designator
Station Type Date Time Source
KDXR METAR 2022/06/28 14:53 UTC NOAA

KDXR 281453Z 35008KT 10SM SCT041 21/11 A3017 RMK AO2 SLP212 T02110111 52008


Station Type Date Time Source
KDXR Decoded METAR 2022/06/28 14:53 UTC NOAA

DANBURY MUNICIPAL AIRPORT, CT, United States (KDXR) 41-22N 073-29W 139M
Jun 28, 2022 - 10:53 AM EDT / 2022.06.28 1453 UTC
Wind: from the N (350 degrees) at 9 MPH (8 KT):0
Visibility: 10 mile(s):0
Sky conditions: partly cloudy
Temperature: 70.0 F (21.1 C)
Dew Point: 52.0 F (11.1 C)
Relative Humidity: 52%
Pressure (altimeter): 30.17 in. Hg (1021 hPa)
Pressure tendency: 0.02 inches (0.8 hPa) higher than three hours ago
ob: KDXR 281453Z 35008KT 10SM SCT041 21/11 A3017 RMK AO2 SLP212 T02110111 52008
cycle: 15

Station Type Date Time Source
KDXR TAF UTC NOAA

Error!

Example: see airport list